Dauntless Aviation
Airports Europe France
LFIY

St Jean d'Angély Airport

Moulins, FRANCE

Airport Info
Suggest Updated Information for this Airport

Location

Latitude / Longitude: 45°57'59"N / 0°31'31"W
  45°57.984'N / 0°31.518'W
  45.9664 / -0.5253

Runway Information

Runway 10 /28

Dimensions: 2789 x 164 ft.
Surface: U
 
Runway 10
Runway 28
Latitude: 45.966636 45.965728
Longitude: -0.528086 -0.518369
Elevation: 243 ft. 243 ft.
Runway true heading: 95.7 275.7
 

Instrument Procedures

IAPs (Instrument Approach Procedures)

  Visual Approach Chart
Satellite photo at:
Airport distance calculator
From:
Weather Reports

METAR

LFBH
31.0nm W
LFBH 250730Z AUTO 33017KT CAVOK 08/04 Q1020 TEMPO 32015G25KT
LFBU
34.5nm E
LFBU 250730Z AUTO 29008KT CAVOK 07/06 Q1019 TEMPO 30015G25KT BKN013

TAF

LFBG
20.0nm SE
TAF LFBG 241400Z 2415/2515 20008KT 7000 BKN005 TEMPO 2415/2502 4000 RA BECMG 2506/2508 SCT010
LFBH
31.0nm W
TAF LFBH 250500Z 2506/2606 32016KT 9999 BKN040 TEMPO 2506/2515 32015G25KT PROB40 TEMPO 2506/2507 32020G35KT 2000 SHRA BKN010 BKN020TCU BECMG 2506/2508 CAVOK BECMG 2520/2522 33005KT
LFBU
34.5nm E
TAF LFBU 250500Z 2506/2606 30012KT 9999 BKN020 TEMPO 2506/2510 BKN013 PROB40 TEMPO 2506/2509 30015G25KT BECMG 2513/2515 CAVOK BECMG 2519/2521 VRB03KT PROB30 TEMPO 2600/2606 3000 BR
Safelog

 

Dauntless Aviation

© 2007-2017 Dauntless Aviation, all rights reserved
Information provided via PilotNav comes from a variety of official and unofficial data sources. As errors are possible, do not use PilotNav for primary flight planning purposes. Verify any information that you receive via PilotNav with current and canonical charts and other official documents. The material in this database is subject to database copyrights held by Dauntless Aviation and may not be copied without the express permission of Dauntless Aviation - licenses for use of part of all of this data are available for purchase; enquire via the Dauntless Aviation helpdesk. A number of mechanisms and markers exist in the database to protect against and identify infringement / copyright. Automated queries against this website are stictly prohibited, and all activity is logged and analyzed.